Time;durP1;ratioP1;P1;durP2;ratioP2;P2;SDS_P1;SDS_P2;PMS_P1;PMS_P2;Temp;Humidity;BMP_temperature;BMP_pressure;BME280_temperature;BME280_humidity;BME280_pressure;Samples;Min_cycle;Max_cycle;Signal;HPM_P1;HPM_P2
2022/09/07 00:01:35;;;;;;;0.00;0.00;;;;;;;;;;5093054;28;20110;-82
2022/09/07 00:04:00;;;;;;;0.10;0.10;;;;;;;;;;5091435;28;20024;-82
2022/09/07 00:06:26;;;;;;;0.00;0.00;;;;;;;;;;5111543;28;20020;-81
2022/09/07 00:08:51;;;;;;;0.00;0.00;;;;;;;;;;5092540;28;20027;-81
2022/09/07 00:11:18;;;;;;;0.10;0.10;;;;;;;;;;5093012;28;20256;-82
2022/09/07 00:13:45;;;;;;;0.20;0.20;;;;;;;;;;5111183;28;20031;-81
2022/09/07 00:16:16;;;;;;;0.00;0.00;;;;;;;;;;5093041;28;20038;-82
2022/09/07 00:18:42;;;;;;;0.00;0.00;;;;;;;;;;5111400;28;20495;-81
2022/09/07 00:21:09;;;;;;;0.00;0.00;;;;;;;;;;5111019;28;20127;-81
2022/09/07 00:23:37;;;;;;;0.00;0.00;;;;;;;;;;5111198;28;20023;-81
2022/09/07 00:26:08;;;;;;;0.00;0.00;;;;;;;;;;5109436;28;20027;-82
2022/09/07 00:28:34;;;;;;;0.00;0.00;;;;;;;;;;5110603;28;20086;-81
2022/09/07 00:30:59;;;;;;;0.00;0.00;;;;;;;;;;5093148;28;20020;-82
2022/09/07 00:33:25;;;;;;;0.00;0.00;;;;;;;;;;5092685;28;20024;-81
2022/09/07 00:35:51;;;;;;;0.00;0.00;;;;;;;;;;5110879;28;20066;-81
2022/09/07 00:38:17;;;;;;;0.00;0.00;;;;;;;;;;5111061;28;20096;-81
2022/09/07 00:40:42;;;;;;;0.00;0.00;;;;;;;;;;5092648;28;20377;-80
2022/09/07 00:43:27;;;;;;;0.00;0.00;;;;;;;;;;5114209;28;20024;-81
2022/09/07 00:45:53;;;;;;;0.00;0.00;;;;;;;;;;5114532;28;20111;-81
2022/09/07 00:48:21;;;;;;;0.00;0.00;;;;;;;;;;5112914;28;20138;-81
2022/09/07 00:50:52;;;;;;;0.00;0.00;;;;;;;;;;5097080;28;20126;-81
2022/09/07 00:53:20;;;;;;;0.10;0.10;;;;;;;;;;5114623;28;20051;-81
2022/09/07 00:55:49;;;;;;;1.65;0.40;;;;;;;;;;5112240;28;20047;-81
2022/09/07 00:58:16;;;;;;;0.00;0.00;;;;;;;;;;5114886;28;20517;-80
2022/09/07 01:00:43;;;;;;;0.00;0.00;;;;;;;;;;5096690;28;20039;-82
2022/09/07 01:03:10;;;;;;;0.00;0.00;;;;;;;;;;5096313;28;20472;-81
2022/09/07 01:05:49;;;;;;;0.00;0.00;;;;;;;;;;5114523;28;20031;-81
2022/09/07 01:08:15;;;;;;;0.00;0.00;;;;;;;;;;5111856;28;20031;-82
2022/09/07 01:10:41;;;;;;;0.00;0.00;;;;;;;;;;5114592;28;20433;-81
2022/09/07 01:13:07;;;;;;;0.00;0.00;;;;;;;;;;5114786;28;20015;-82
2022/09/07 01:16:15;;;;;;;0.00;0.00;;;;;;;;;;5115145;28;20047;-81
2022/09/07 01:19:33;;;;;;;0.00;0.00;;;;;;;;;;5112681;28;20096;-81
2022/09/07 01:22:33;;;;;;;0.00;0.00;;;;;;;;;;5096012;28;20020;-81
2022/09/07 01:24:58;;;;;;;0.00;0.00;;;;;;;;;;5114194;28;20039;-80
2022/09/07 01:27:51;;;;;;;0.00;0.00;;;;;;;;;;5113907;28;20463;-81
2022/09/07 01:30:22;;;;;;;0.00;0.00;;;;;;;;;;5114354;28;20110;-81
2022/09/07 01:33:17;;;;;;;0.00;0.00;;;;;;;;;;5113791;28;20062;-80
2022/09/07 01:35:54;;;;;;;0.00;0.00;;;;;;;;;;5113849;28;20024;-82
2022/09/07 01:38:30;;;;;;;0.10;0.10;;;;;;;;;;5113441;28;20092;-80
2022/09/07 01:41:24;;;;;;;0.00;0.00;;;;;;;;;;5113620;28;20016;-81
2022/09/07 01:44:51;;;;;;;0.00;0.00;;;;;;;;;;5075270;28;20422;-82
2022/09/07 01:47:26;;;;;;;0.20;0.20;;;;;;;;;;5076398;28;20393;-82
2022/09/07 01:49:53;;;;;;;0.00;0.00;;;;;;;;;;5095577;28;20031;-80
2022/09/07 01:52:30;;;;;;;0.00;0.00;;;;;;;;;;5113311;28;20040;-81
2022/09/07 01:55:32;;;;;;;0.00;0.00;;;;;;;;;;5113359;28;20458;-80
2022/09/07 01:58:10;;;;;;;0.00;0.00;;;;;;;;;;5111099;28;20039;-81
2022/09/07 02:00:39;;;;;;;0.00;0.00;;;;;;;;;;5095526;28;20512;-81
2022/09/07 02:03:14;;;;;;;0.00;0.00;;;;;;;;;;5114022;28;20038;-81
2022/09/07 02:05:47;;;;;;;0.03;0.03;;;;;;;;;;5113561;28;20032;-81
2022/09/07 02:08:17;;;;;;;0.00;0.00;;;;;;;;;;5113353;28;20409;-81
2022/09/07 02:10:53;;;;;;;0.10;0.10;;;;;;;;;;5113083;28;20088;-81
2022/09/07 02:13:28;;;;;;;0.10;0.10;;;;;;;;;;5113034;28;20073;-81
2022/09/07 02:16:00;;;;;;;0.00;0.00;;;;;;;;;;5113780;28;20132;-81
2022/09/07 02:18:31;;;;;;;0.30;0.30;;;;;;;;;;5113595;28;20028;-81
2022/09/07 02:20:58;;;;;;;0.00;0.00;;;;;;;;;;5113104;28;20057;-81
2022/09/07 02:23:29;;;;;;;0.10;0.10;;;;;;;;;;5112973;28;20038;-81
2022/09/07 02:26:04;;;;;;;2.40;0.32;;;;;;;;;;5112806;28;20019;-81
2022/09/07 02:28:34;;;;;;;0.30;0.30;;;;;;;;;;5113093;28;20030;-81
2022/09/07 02:31:00;;;;;;;0.38;0.38;;;;;;;;;;5113387;28;20523;-81
2022/09/07 02:33:27;;;;;;;0.00;0.00;;;;;;;;;;5095349;28;20532;-81
2022/09/07 02:35:52;;;;;;;0.00;0.00;;;;;;;;;;5112514;28;20059;-81
2022/09/07 02:38:18;;;;;;;0.10;0.10;;;;;;;;;;5113236;28;20133;-82
2022/09/07 02:40:56;;;;;;;0.00;0.00;;;;;;;;;;5112994;28;20027;-81
2022/09/07 02:43:23;;;;;;;0.10;0.10;;;;;;;;;;5109732;28;20032;-80
2022/09/07 02:46:08;;;;;;;0.00;0.00;;;;;;;;;;5112765;28;20027;-81
2022/09/07 02:49:15;;;;;;;0.25;0.25;;;;;;;;;;5109266;28;20019;-81
2022/09/07 02:51:46;;;;;;;0.00;0.00;;;;;;;;;;5112323;28;20030;-82
2022/09/07 02:54:36;;;;;;;0.00;0.00;;;;;;;;;;5108579;28;20023;-80
2022/09/07 02:57:29;;;;;;;0.00;0.00;;;;;;;;;;5111523;28;20173;-81
2022/09/07 03:00:10;;;;;;;0.00;0.00;;;;;;;;;;5112726;28;20039;-82
2022/09/07 03:02:41;;;;;;;0.00;0.00;;;;;;;;;;5110977;28;20721;-83
2022/09/07 03:05:16;;;;;;;0.15;0.13;;;;;;;;;;5112175;28;20022;-81
2022/09/07 03:08:03;;;;;;;0.00;0.00;;;;;;;;;;5111135;28;20027;-81
2022/09/07 03:10:29;;;;;;;0.10;0.10;;;;;;;;;;5112143;28;20023;-81
2022/09/07 03:12:55;;;;;;;0.00;0.00;;;;;;;;;;5112489;28;20023;-81
2022/09/07 03:15:24;;;;;;;0.00;0.00;;;;;;;;;;5112536;28;20031;-81
2022/09/07 03:17:50;;;;;;;0.65;0.30;;;;;;;;;;5112408;28;20077;-80
2022/09/07 03:20:16;;;;;;;0.00;0.00;;;;;;;;;;5094316;28;20031;-81
2022/09/07 03:22:46;;;;;;;0.00;0.00;;;;;;;;;;5112164;28;20032;-81
2022/09/07 03:25:12;;;;;;;0.00;0.00;;;;;;;;;;5112785;28;20020;-80
2022/09/07 03:27:37;;;;;;;0.00;0.00;;;;;;;;;;5111664;28;20032;-81
2022/09/07 03:30:05;;;;;;;0.00;0.00;;;;;;;;;;5112294;28;20031;-81
2022/09/07 03:32:33;;;;;;;0.70;0.70;;;;;;;;;;5111962;28;20061;-81
2022/09/07 03:35:00;;;;;;;0.00;0.00;;;;;;;;;;5111621;28;20020;-81
2022/09/07 03:37:25;;;;;;;0.10;0.10;;;;;;;;;;5093812;28;20080;-82
2022/09/07 03:39:51;;;;;;;0.00;0.00;;;;;;;;;;5111910;28;20016;-81
2022/09/07 03:42:16;;;;;;;0.00;0.00;;;;;;;;;;5111628;28;20023;-82
2022/09/07 03:44:41;;;;;;;0.00;0.00;;;;;;;;;;5111442;28;20107;-81
2022/09/07 03:47:07;;;;;;;0.10;0.10;;;;;;;;;;5111518;28;20033;-82
2022/09/07 03:49:32;;;;;;;0.00;0.00;;;;;;;;;;5111906;28;20380;-80
2022/09/07 03:51:58;;;;;;;0.00;0.00;;;;;;;;;;5111473;28;20027;-82
2022/09/07 03:54:24;;;;;;;0.00;0.00;;;;;;;;;;5111589;28;20480;-82
2022/09/07 03:56:49;;;;;;;0.00;0.00;;;;;;;;;;5110818;28;20400;-81
2022/09/07 03:59:14;;;;;;;0.00;0.00;;;;;;;;;;5111633;28;20058;-81
2022/09/07 04:01:40;;;;;;;0.00;0.00;;;;;;;;;;5111641;28;20102;-81
2022/09/07 04:04:05;;;;;;;0.00;0.00;;;;;;;;;;5092997;28;20035;-81
2022/09/07 04:06:31;;;;;;;0.00;0.00;;;;;;;;;;5111595;28;20477;-82
2022/09/07 04:09:02;;;;;;;0.10;0.10;;;;;;;;;;5093200;28;20028;-82
2022/09/07 04:11:27;;;;;;;0.00;0.00;;;;;;;;;;5111311;28;20403;-80
2022/09/07 04:13:53;;;;;;;0.25;0.25;;;;;;;;;;5111080;28;20011;-82
2022/09/07 04:16:21;;;;;;;0.00;0.00;;;;;;;;;;5111469;28;20035;-81
2022/09/07 04:18:49;;;;;;;0.00;0.00;;;;;;;;;;5110279;28;20103;-81
2022/09/07 04:21:15;;;;;;;0.00;0.00;;;;;;;;;;5111170;28;20027;-81
2022/09/07 04:23:42;;;;;;;0.00;0.00;;;;;;;;;;5111839;28;20028;-80
2022/09/07 04:26:31;;;;;;;0.00;0.00;;;;;;;;;;5110917;28;20038;-81
2022/09/07 04:28:58;;;;;;;0.20;0.20;;;;;;;;;;5082664;28;20082;-81
2022/09/07 04:31:24;;;;;;;0.00;0.00;;;;;;;;;;5092979;28;20499;-81
2022/09/07 04:33:50;;;;;;;0.00;0.00;;;;;;;;;;5111003;28;20020;-81
2022/09/07 04:36:16;;;;;;;0.00;0.00;;;;;;;;;;5110662;28;20035;-81
2022/09/07 04:38:42;;;;;;;0.28;0.15;;;;;;;;;;5093114;28;20034;-81
2022/09/07 04:41:18;;;;;;;0.00;0.00;;;;;;;;;;5110925;28;20024;-81
2022/09/07 04:43:44;;;;;;;0.20;0.20;;;;;;;;;;5111109;28;20076;-81
2022/09/07 04:46:25;;;;;;;0.10;0.10;;;;;;;;;;5111197;28;20344;-82
2022/09/07 04:48:53;;;;;;;0.15;0.15;;;;;;;;;;5106417;28;20035;-82
2022/09/07 04:51:20;;;;;;;0.15;0.15;;;;;;;;;;5108701;28;20048;-82
2022/09/07 04:53:51;;;;;;;0.00;0.00;;;;;;;;;;5092778;28;20371;-82
2022/09/07 04:56:17;;;;;;;0.10;0.10;;;;;;;;;;5110301;28;20078;-81
2022/09/07 04:58:43;;;;;;;0.00;0.00;;;;;;;;;;5110473;28;20098;-82
2022/09/07 05:01:11;;;;;;;0.15;0.10;;;;;;;;;;5110768;28;20024;-82
2022/09/07 05:03:37;;;;;;;0.35;0.30;;;;;;;;;;5110452;28;20616;-82
2022/09/07 05:06:04;;;;;;;0.00;0.00;;;;;;;;;;5110973;28;20020;-82
2022/09/07 05:08:35;;;;;;;0.25;0.25;;;;;;;;;;5110772;28;20190;-82
2022/09/07 05:11:00;;;;;;;0.00;0.00;;;;;;;;;;5106687;28;20016;-82
2022/09/07 05:13:28;;;;;;;0.10;0.10;;;;;;;;;;5092225;28;20067;-82
2022/09/07 05:15:53;;;;;;;0.00;0.00;;;;;;;;;;5110285;28;20480;-82
2022/09/07 05:18:20;;;;;;;0.00;0.00;;;;;;;;;;5110615;28;20120;-82
2022/09/07 05:20:45;;;;;;;0.00;0.00;;;;;;;;;;5110964;28;20019;-81
2022/09/07 05:23:11;;;;;;;0.10;0.10;;;;;;;;;;5109341;28;20028;-82
2022/09/07 05:25:45;;;;;;;0.38;0.38;;;;;;;;;;5092126;28;20031;-82
2022/09/07 05:28:12;;;;;;;0.10;0.10;;;;;;;;;;5109708;28;20522;-82
2022/09/07 05:30:38;;;;;;;0.00;0.00;;;;;;;;;;5111187;28;20487;-82
2022/09/07 05:33:04;;;;;;;0.00;0.00;;;;;;;;;;5114235;28;20046;-81
2022/09/07 05:35:29;;;;;;;0.08;0.08;;;;;;;;;;5114418;28;20038;-82
2022/09/07 05:37:55;;;;;;;0.38;0.38;;;;;;;;;;5113908;28;20020;-82
2022/09/07 05:40:21;;;;;;;0.00;0.00;;;;;;;;;;5114410;28;20058;-82
2022/09/07 05:42:47;;;;;;;0.35;0.28;;;;;;;;;;5113746;28;20340;-82
2022/09/07 05:45:12;;;;;;;0.00;0.00;;;;;;;;;;5114234;28;20088;-82
2022/09/07 05:47:38;;;;;;;0.00;0.00;;;;;;;;;;5113580;28;20027;-81
2022/09/07 05:50:05;;;;;;;0.00;0.00;;;;;;;;;;5113636;28;20035;-82
2022/09/07 05:52:31;;;;;;;0.00;0.00;;;;;;;;;;5111263;28;20035;-82
2022/09/07 05:54:56;;;;;;;0.00;0.00;;;;;;;;;;5113548;28;20159;-82
2022/09/07 05:57:22;;;;;;;0.13;0.13;;;;;;;;;;5113727;28;20019;-82
2022/09/07 05:59:47;;;;;;;0.00;0.00;;;;;;;;;;5113586;28;20447;-82
2022/09/07 06:02:14;;;;;;;0.00;0.00;;;;;;;;;;5113515;28;20027;-83
2022/09/07 06:04:41;;;;;;;0.10;0.10;;;;;;;;;;5113115;28;20124;-83
2022/09/07 06:07:10;;;;;;;0.10;0.10;;;;;;;;;;5113116;28;20023;-83
2022/09/07 06:09:37;;;;;;;0.00;0.00;;;;;;;;;;5113856;28;20036;-81
2022/09/07 06:12:04;;;;;;;0.32;0.32;;;;;;;;;;5112904;28;20035;-81
2022/09/07 06:14:30;;;;;;;0.22;0.22;;;;;;;;;;5113057;28;20090;-81
2022/09/07 06:16:55;;;;;;;0.10;0.10;;;;;;;;;;5113242;28;20479;-82
2022/09/07 06:19:21;;;;;;;0.00;0.00;;;;;;;;;;5113140;28;20028;-82
2022/09/07 06:21:46;;;;;;;0.00;0.00;;;;;;;;;;5095285;28;20028;-81
2022/09/07 06:24:11;;;;;;;0.00;0.00;;;;;;;;;;5113280;28;20476;-81
2022/09/07 06:26:37;;;;;;;0.00;0.00;;;;;;;;;;5113272;28;20114;-81
2022/09/07 06:29:02;;;;;;;0.00;0.00;;;;;;;;;;5113094;28;20034;-81
2022/09/07 06:31:28;;;;;;;0.00;0.00;;;;;;;;;;5094808;28;20072;-83
2022/09/07 06:33:54;;;;;;;0.77;0.30;;;;;;;;;;5113128;28;20020;-82
2022/09/07 06:36:22;;;;;;;0.00;0.00;;;;;;;;;;5094961;28;20058;-83
2022/09/07 06:38:48;;;;;;;0.00;0.00;;;;;;;;;;5112321;28;20029;-79
2022/09/07 06:41:17;;;;;;;0.00;0.00;;;;;;;;;;5094308;28;20031;-82
2022/09/07 06:43:42;;;;;;;0.00;0.00;;;;;;;;;;5094203;28;20039;-83
2022/09/07 06:46:08;;;;;;;0.00;0.00;;;;;;;;;;5112602;28;20031;-81
2022/09/07 06:48:34;;;;;;;0.00;0.00;;;;;;;;;;5110329;28;20486;-82
2022/09/07 06:51:10;;;;;;;0.00;0.00;;;;;;;;;;5112744;28;20031;-80
2022/09/07 06:53:37;;;;;;;0.00;0.00;;;;;;;;;;5112709;28;20421;-83
2022/09/07 06:56:08;;;;;;;0.00;0.00;;;;;;;;;;5093729;28;20064;-81
2022/09/07 06:58:34;;;;;;;0.00;0.00;;;;;;;;;;5094375;28;20047;-81
2022/09/07 07:01:05;;;;;;;0.00;0.00;;;;;;;;;;5112159;28;20024;-82
2022/09/07 07:03:31;;;;;;;0.00;0.00;;;;;;;;;;5111906;28;20020;-82
2022/09/07 07:05:56;;;;;;;0.00;0.00;;;;;;;;;;5112598;28;20098;-81
2022/09/07 07:08:24;;;;;;;0.00;0.00;;;;;;;;;;5112676;28;20034;-82
2022/09/07 07:10:50;;;;;;;0.00;0.00;;;;;;;;;;5094320;28;20032;-81
2022/09/07 07:13:16;;;;;;;0.00;0.00;;;;;;;;;;5112252;28;20034;-81
2022/09/07 07:15:42;;;;;;;0.00;0.00;;;;;;;;;;5112039;28;20019;-83
2022/09/07 07:18:08;;;;;;;0.22;0.22;;;;;;;;;;5111908;28;20023;-81
2022/09/07 07:20:35;;;;;;;0.00;0.00;;;;;;;;;;5112265;28;20113;-81
2022/09/07 07:23:01;;;;;;;0.00;0.00;;;;;;;;;;5112185;28;20027;-82
2022/09/07 07:25:26;;;;;;;0.00;0.00;;;;;;;;;;5112266;28;20098;-81
2022/09/07 07:27:52;;;;;;;0.00;0.00;;;;;;;;;;5111783;28;20027;-80
2022/09/07 07:30:18;;;;;;;0.00;0.00;;;;;;;;;;5112244;28;20039;-83
2022/09/07 07:32:44;;;;;;;0.00;0.00;;;;;;;;;;5112038;28;20029;-82
2022/09/07 07:35:10;;;;;;;0.00;0.00;;;;;;;;;;5093988;28;20095;-82
2022/09/07 07:37:36;;;;;;;0.03;0.03;;;;;;;;;;5111719;28;20035;-81
2022/09/07 07:40:04;;;;;;;0.17;0.17;;;;;;;;;;5112006;28;20094;-82
2022/09/07 07:42:30;;;;;;;0.00;0.00;;;;;;;;;;5111717;28;20455;-81
2022/09/07 07:44:55;;;;;;;0.45;0.45;;;;;;;;;;5093622;28;20076;-84
2022/09/07 07:47:21;;;;;;;0.10;0.10;;;;;;;;;;5093491;28;20027;-82
2022/09/07 07:49:46;;;;;;;0.00;0.00;;;;;;;;;;5111272;28;20102;-82
2022/09/07 07:52:11;;;;;;;0.10;0.10;;;;;;;;;;5112094;28;20020;-82
2022/09/07 07:54:37;;;;;;;0.03;0.03;;;;;;;;;;5111981;28;20027;-80
2022/09/07 07:57:04;;;;;;;0.00;0.00;;;;;;;;;;5093532;28;20523;-82
2022/09/07 07:59:29;;;;;;;0.00;0.00;;;;;;;;;;5093557;28;20027;-82
2022/09/07 08:01:55;;;;;;;0.00;0.00;;;;;;;;;;5094031;28;20065;-81
2022/09/07 08:04:21;;;;;;;0.00;0.00;;;;;;;;;;5111776;28;20024;-81
2022/09/07 08:06:47;;;;;;;0.28;0.28;;;;;;;;;;5093637;28;20084;-82
2022/09/07 08:09:12;;;;;;;0.03;0.03;;;;;;;;;;5093241;28;20031;-83
2022/09/07 08:11:41;;;;;;;0.00;0.00;;;;;;;;;;5111878;28;20023;-84
2022/09/07 08:14:07;;;;;;;0.05;0.00;;;;;;;;;;5111354;28;20072;-82
2022/09/07 08:16:33;;;;;;;0.08;0.08;;;;;;;;;;5111252;28;20059;-80
2022/09/07 08:19:00;;;;;;;0.00;0.00;;;;;;;;;;5109408;28;20110;-81
2022/09/07 08:21:25;;;;;;;0.00;0.00;;;;;;;;;;5110482;28;20033;-81
2022/09/07 08:23:51;;;;;;;0.10;0.10;;;;;;;;;;5093174;28;20531;-82
2022/09/07 08:26:16;;;;;;;0.00;0.00;;;;;;;;;;5111014;28;20035;-83
2022/09/07 08:28:46;;;;;;;0.17;0.17;;;;;;;;;;5093253;28;20419;-81
2022/09/07 08:31:13;;;;;;;;;;;;;;;;;;5111550;28;20519;-83
2022/09/07 08:33:38;;;;;;;0.17;0.17;;;;;;;;;;5092690;28;19947;-80
2022/09/07 08:36:14;;;;;;;0.00;0.00;;;;;;;;;;5110787;28;20483;-83
2022/09/07 08:38:40;;;;;;;0.22;0.20;;;;;;;;;;5092986;28;20051;-82
2022/09/07 08:41:49;;;;;;;0.05;0.05;;;;;;;;;;5110457;28;20584;-81
2022/09/07 08:44:23;;;;;;;0.10;0.10;;;;;;;;;;5053939;28;20044;-81
2022/09/07 09:11:48;;;;;;;0.00;0.00;;;;;;;;;;5104409;27;20392;-80
2022/09/07 09:14:36;;;;;;;0.10;0.10;;;;;;;;;;5095888;28;20036;-81
2022/09/07 09:17:28;;;;;;;0.20;0.00;;;;;;;;;;5103101;28;20110;-81
2022/09/07 09:20:19;;;;;;;0.05;0.05;;;;;;;;;;5100463;28;20463;-82
2022/09/07 09:22:45;;;;;;;0.10;0.10;;;;;;;;;;5103544;28;20332;-81
2022/09/07 09:25:19;;;;;;;0.00;0.00;;;;;;;;;;5101740;28;20096;-81
2022/09/07 09:27:45;;;;;;;0.00;0.00;;;;;;;;;;5102500;28;20502;-82
2022/09/07 09:30:20;;;;;;;0.10;0.10;;;;;;;;;;5105383;28;20054;-81
2022/09/07 09:32:48;;;;;;;0.28;0.10;;;;;;;;;;5099204;28;20047;-82
2022/09/07 09:35:26;;;;;;;0.00;0.00;;;;;;;;;;5103010;28;20023;-82
2022/09/07 09:37:52;;;;;;;0.15;0.15;;;;;;;;;;5104328;28;20020;-81
2022/09/07 09:40:35;;;;;;;0.00;0.00;;;;;;;;;;5103649;28;20028;-82
2022/09/07 09:43:22;;;;;;;0.00;0.00;;;;;;;;;;5098508;28;20032;-81
2022/09/07 09:45:51;;;;;;;0.00;0.00;;;;;;;;;;5100119;28;20077;-81
2022/09/07 09:48:28;;;;;;;0.15;0.15;;;;;;;;;;5104342;28;20028;-82
2022/09/07 09:50:56;;;;;;;0.00;0.00;;;;;;;;;;5099596;28;20024;-82
2022/09/07 09:53:36;;;;;;;0.00;0.00;;;;;;;;;;5103264;28;20113;-82
2022/09/07 09:56:03;;;;;;;0.22;0.10;;;;;;;;;;5102033;28;20479;-81
2022/09/07 09:58:31;;;;;;;0.10;0.10;;;;;;;;;;5107592;28;20214;-80
2022/09/07 10:01:02;;;;;;;0.10;0.10;;;;;;;;;;5105785;28;20039;-84
2022/09/07 10:03:30;;;;;;;0.10;0.10;;;;;;;;;;5099229;28;20024;-81
2022/09/07 10:05:56;;;;;;;0.25;0.10;;;;;;;;;;5103634;28;20043;-83
2022/09/07 10:08:28;;;;;;;0.00;0.00;;;;;;;;;;5098466;28;20032;-82
2022/09/07 10:10:55;;;;;;;0.10;0.10;;;;;;;;;;5100972;28;20566;-81
2022/09/07 10:13:30;;;;;;;0.00;0.00;;;;;;;;;;5086853;28;20054;-80
2022/09/07 10:16:06;;;;;;;0.03;0.03;;;;;;;;;;5087512;28;20035;-81
2022/09/07 10:18:38;;;;;;;1.00;0.20;;;;;;;;;;5090069;28;20101;-80
2022/09/07 10:21:22;;;;;;;0.00;0.00;;;;;;;;;;5087492;28;20028;-81
2022/09/07 10:23:53;;;;;;;0.00;0.00;;;;;;;;;;5085494;28;20047;-83
2022/09/07 10:26:21;;;;;;;0.32;0.32;;;;;;;;;;5086385;28;20027;-82
2022/09/07 10:28:46;;;;;;;0.00;0.00;;;;;;;;;;5090724;28;20077;-81
2022/09/07 10:31:30;;;;;;;0.10;0.10;;;;;;;;;;5083460;28;20032;-81
2022/09/07 10:34:36;;;;;;;0.00;0.00;;;;;;;;;;5088212;28;20028;-81
2022/09/07 10:37:10;;;;;;;0.15;0.15;;;;;;;;;;5080721;28;20044;-81
2022/09/07 10:39:40;;;;;;;0.00;0.00;;;;;;;;;;5083589;28;20062;-81
2022/09/07 10:42:08;;;;;;;0.00;0.00;;;;;;;;;;5090326;28;20035;-81
2022/09/07 10:44:52;;;;;;;0.00;0.00;;;;;;;;;;5084833;28;20540;-85
2022/09/07 10:47:43;;;;;;;0.20;0.20;;;;;;;;;;5090155;28;20554;-81
2022/09/07 10:50:29;;;;;;;0.00;0.00;;;;;;;;;;5085589;28;20376;-82
2022/09/07 10:53:15;;;;;;;0.00;0.00;;;;;;;;;;5087265;28;20441;-82
2022/09/07 10:55:47;;;;;;;0.17;0.17;;;;;;;;;;5082403;28;20609;-82
2022/09/07 10:58:15;;;;;;;0.00;0.00;;;;;;;;;;5083659;28;20047;-82
2022/09/07 11:00:58;;;;;;;0.00;0.00;;;;;;;;;;5081866;28;20027;-82
2022/09/07 11:03:59;;;;;;;0.05;0.05;;;;;;;;;;5086842;28;20058;-82
2022/09/07 11:06:36;;;;;;;0.00;0.00;;;;;;;;;;5049381;28;20083;-82
2022/09/07 11:09:14;;;;;;;0.05;0.05;;;;;;;;;;5086059;28;20036;-82
2022/09/07 11:11:42;;;;;;;0.00;0.00;;;;;;;;;;5089781;28;20429;-80
2022/09/07 11:14:12;;;;;;;0.00;0.00;;;;;;;;;;5087691;28;20034;-80
2022/09/07 11:16:50;;;;;;;0.15;0.15;;;;;;;;;;5084311;28;20025;-81
2022/09/07 11:19:21;;;;;;;0.47;0.32;;;;;;;;;;5083963;28;20040;-80
2022/09/07 11:22:04;;;;;;;0.65;0.40;;;;;;;;;;5085411;28;20507;-82
2022/09/07 11:24:39;;;;;;;0.00;0.00;;;;;;;;;;5077841;28;20093;-81
2022/09/07 11:27:14;;;;;;;0.25;0.20;;;;;;;;;;5087848;28;20106;-82
2022/09/07 11:29:51;;;;;;;0.00;0.00;;;;;;;;;;5082938;28;20440;-81
2022/09/07 11:32:34;;;;;;;0.68;0.68;;;;;;;;;;5081392;28;20487;-80
2022/09/07 11:35:06;;;;;;;0.03;0.03;;;;;;;;;;5082155;28;20502;-81
2022/09/07 11:37:58;;;;;;;0.10;0.10;;;;;;;;;;5081151;28;20389;-81
2022/09/07 11:40:30;;;;;;;0.10;0.10;;;;;;;;;;5089515;28;20031;-82
2022/09/07 11:43:12;;;;;;;0.00;0.00;;;;;;;;;;5083240;28;20530;-81
2022/09/07 11:45:58;;;;;;;1.45;0.20;;;;;;;;;;5083184;28;20028;-81
2022/09/07 11:48:29;;;;;;;0.20;0.20;;;;;;;;;;5083434;28;20399;-82
2022/09/07 11:50:59;;;;;;;0.17;0.15;;;;;;;;;;5077918;28;20061;-81
2022/09/07 11:53:32;;;;;;;0.00;0.00;;;;;;;;;;5082721;28;20024;-81
2022/09/07 11:56:10;;;;;;;0.03;0.03;;;;;;;;;;5076293;28;20028;-82
2022/09/07 11:58:52;;;;;;;0.20;0.20;;;;;;;;;;5083210;28;20515;-82
2022/09/07 12:01:27;;;;;;;0.15;0.08;;;;;;;;;;5082380;28;20525;-81
2022/09/07 12:04:08;;;;;;;0.40;0.40;;;;;;;;;;5079605;28;20043;-82
2022/09/07 12:06:59;;;;;;;0.05;0.05;;;;;;;;;;5077608;28;20392;-81
2022/09/07 12:09:47;;;;;;;0.10;0.10;;;;;;;;;;5081635;28;20048;-82
2022/09/07 12:12:33;;;;;;;0.22;0.22;;;;;;;;;;5086420;28;20027;-82
2022/09/07 12:15:31;;;;;;;0.00;0.00;;;;;;;;;;5087220;28;20032;-82
2022/09/07 12:18:11;;;;;;;0.20;0.20;;;;;;;;;;5077102;28;20029;-83
2022/09/07 12:20:44;;;;;;;0.10;0.10;;;;;;;;;;5081222;28;20025;-82
2022/09/07 12:23:16;;;;;;;0.20;0.20;;;;;;;;;;5076588;28;20454;-83
2022/09/07 12:25:46;;;;;;;0.25;0.25;;;;;;;;;;5090576;28;20129;-80
2022/09/07 12:28:34;;;;;;;0.17;0.17;;;;;;;;;;5081285;28;20111;-80
2022/09/07 12:31:05;;;;;;;0.10;0.10;;;;;;;;;;5079595;28;20052;-79
2022/09/07 12:33:35;;;;;;;0.10;0.10;;;;;;;;;;5086395;28;20112;-79
2022/09/07 12:36:21;;;;;;;0.00;0.00;;;;;;;;;;5082692;28;20074;-80
2022/09/07 12:39:19;;;;;;;0.20;0.20;;;;;;;;;;5079483;28;20051;-80
2022/09/07 12:41:48;;;;;;;0.00;0.00;;;;;;;;;;5083810;28;20024;-81
2022/09/07 12:44:17;;;;;;;0.05;0.05;;;;;;;;;;5089231;28;20027;-81
2022/09/07 12:46:54;;;;;;;0.10;0.10;;;;;;;;;;5081132;28;20035;-80
2022/09/07 12:49:38;;;;;;;0.10;0.10;;;;;;;;;;5086607;28;20024;-82
2022/09/07 12:52:25;;;;;;;0.20;0.20;;;;;;;;;;5087509;28;20463;-82
2022/09/07 12:55:21;;;;;;;0.10;0.10;;;;;;;;;;5087588;28;20024;-81
2022/09/07 12:57:55;;;;;;;0.10;0.10;;;;;;;;;;5088500;28;20068;-81
2022/09/07 13:00:30;;;;;;;0.08;0.08;;;;;;;;;;5085050;28;20036;-82
2022/09/07 13:03:09;;;;;;;0.20;0.10;;;;;;;;;;5086739;28;20099;-82
2022/09/07 13:06:21;;;;;;;0.32;0.32;;;;;;;;;;5089361;28;20032;-81
2022/09/07 13:09:05;;;;;;;0.30;0.20;;;;;;;;;;5076617;28;20537;-84
2022/09/07 13:11:34;;;;;;;0.22;0.20;;;;;;;;;;5086409;28;20089;-80
2022/09/07 13:14:08;;;;;;;0.85;0.13;;;;;;;;;;5079770;28;20103;-80
2022/09/07 13:16:38;;;;;;;0.10;0.10;;;;;;;;;;5087181;28;20036;-81
2022/09/07 13:19:07;;;;;;;0.30;0.17;;;;;;;;;;5081473;28;20039;-81
2022/09/07 13:21:48;;;;;;;0.20;0.20;;;;;;;;;;5085576;28;20035;-81
2022/09/07 13:24:15;;;;;;;0.15;0.15;;;;;;;;;;5087632;28;20047;-83
2022/09/07 13:27:02;;;;;;;0.43;0.40;;;;;;;;;;5086651;28;20016;-82
2022/09/07 13:29:37;;;;;;;0.40;0.40;;;;;;;;;;5086129;28;20103;-81
2022/09/07 13:32:08;;;;;;;0.52;0.50;;;;;;;;;;5085633;28;20085;-81
2022/09/07 13:34:33;;;;;;;0.80;0.40;;;;;;;;;;5086465;28;20016;-81
2022/09/07 13:37:00;;;;;;;0.20;0.20;;;;;;;;;;5082573;28;20038;-80
2022/09/07 13:39:27;;;;;;;0.45;0.45;;;;;;;;;;5084137;28;20529;-83
2022/09/07 13:41:55;;;;;;;0.10;0.10;;;;;;;;;;5088149;28;20031;-80
2022/09/07 13:44:23;;;;;;;0.20;0.20;;;;;;;;;;5088042;28;20028;-82
2022/09/07 13:46:52;;;;;;;0.10;0.10;;;;;;;;;;5083829;28;20261;-80
2022/09/07 13:49:42;;;;;;;0.10;0.10;;;;;;;;;;5090892;28;20472;-82
2022/09/07 13:52:15;;;;;;;0.10;0.10;;;;;;;;;;5086405;28;20111;-83
2022/09/07 13:55:07;;;;;;;0.52;0.40;;;;;;;;;;5089220;28;20543;-80
2022/09/07 13:57:45;;;;;;;0.20;0.20;;;;;;;;;;5090300;28;20027;-82
2022/09/07 14:00:16;;;;;;;0.22;0.22;;;;;;;;;;5087292;28;20441;-82
2022/09/07 14:02:42;;;;;;;0.20;0.20;;;;;;;;;;5087919;28;20107;-83
2022/09/07 14:05:10;;;;;;;0.10;0.10;;;;;;;;;;5091210;28;20119;-79
2022/09/07 14:07:42;;;;;;;0.10;0.10;;;;;;;;;;5086244;28;20411;-80
2022/09/07 14:10:20;;;;;;;0.30;0.30;;;;;;;;;;5089808;28;20044;-81
2022/09/07 14:13:03;;;;;;;0.10;0.10;;;;;;;;;;5082727;28;20114;-81
2022/09/07 14:15:42;;;;;;;0.40;0.40;;;;;;;;;;5086273;28;20421;-81
2022/09/07 14:18:13;;;;;;;0.20;0.20;;;;;;;;;;5092721;28;20042;-80
2022/09/07 14:20:48;;;;;;;0.10;0.10;;;;;;;;;;5086437;28;20031;-81
2022/09/07 14:23:31;;;;;;;0.10;0.10;;;;;;;;;;5088372;28;20038;-81
2022/09/07 14:26:19;;;;;;;0.52;0.40;;;;;;;;;;5084164;28;20031;-81
2022/09/07 14:28:50;;;;;;;0.20;0.20;;;;;;;;;;5089841;28;20043;-81
2022/09/07 14:31:18;;;;;;;0.30;0.30;;;;;;;;;;5089634;28;20035;-82
2022/09/07 14:33:56;;;;;;;0.20;0.10;;;;;;;;;;5089056;28;20054;-82
2022/09/07 14:36:30;;;;;;;0.10;0.10;;;;;;;;;;5090113;28;20081;-81
2022/09/07 14:38:58;;;;;;;0.65;0.13;;;;;;;;;;5089847;28;20024;-81
2022/09/07 14:41:27;;;;;;;0.30;0.20;;;;;;;;;;5087512;28;20032;-81
2022/09/07 14:43:56;;;;;;;;;;;;;;;;;;5082443;28;20490;-83
2022/09/07 14:46:29;;;;;;;0.20;0.20;;;;;;;;;;5083446;28;19955;-82
2022/09/07 14:48:57;;;;;;;0.10;0.10;;;;;;;;;;5088350;28;20028;-81
2022/09/07 14:51:30;;;;;;;0.20;0.20;;;;;;;;;;5084375;28;20407;-82
2022/09/07 14:53:58;;;;;;;0.10;0.10;;;;;;;;;;5089968;28;20024;-82
2022/09/07 14:56:30;;;;;;;0.00;0.00;;;;;;;;;;5083891;28;20038;-81
2022/09/07 14:58:56;;;;;;;0.28;0.28;;;;;;;;;;5088323;28;20374;-82
2022/09/07 15:01:24;;;;;;;0.30;0.10;;;;;;;;;;5087680;28;20392;-81
2022/09/07 15:03:50;;;;;;;0.10;0.10;;;;;;;;;;5091581;28;20031;-81
2022/09/07 15:06:38;;;;;;;0.00;0.00;;;;;;;;;;5084795;28;20070;-83
2022/09/07 15:09:05;;;;;;;0.20;0.20;;;;;;;;;;5085619;28;20020;-82
2022/09/07 15:11:35;;;;;;;0.32;0.32;;;;;;;;;;5083077;28;20399;-80
2022/09/07 15:14:07;;;;;;;0.10;0.10;;;;;;;;;;5087700;28;20025;-82
2022/09/07 15:16:35;;;;;;;0.10;0.10;;;;;;;;;;5091786;28;20020;-82
2022/09/07 15:19:02;;;;;;;0.10;0.08;;;;;;;;;;5085719;28;20032;-81
2022/09/07 15:21:35;;;;;;;0.15;0.15;;;;;;;;;;5089392;28;20065;-81
2022/09/07 15:24:02;;;;;;;0.10;0.10;;;;;;;;;;5123642;27;20541;-84
2022/09/07 15:26:39;;;;;;;0.10;0.10;;;;;;;;;;5090408;28;20463;-82
2022/09/07 15:29:05;;;;;;;0.00;0.00;;;;;;;;;;5087150;28;20432;-82
2022/09/07 15:31:33;;;;;;;0.05;0.05;;;;;;;;;;5087532;28;20375;-82
2022/09/07 15:34:06;;;;;;;0.10;0.10;;;;;;;;;;5085015;28;20035;-82
2022/09/07 15:36:31;;;;;;;0.28;0.20;;;;;;;;;;5087207;28;20046;-82
2022/09/07 15:38:57;;;;;;;0.30;0.30;;;;;;;;;;5088687;28;20107;-82